Time,TemperatureF,DewpointF,PressureIn,WindDirection,WindDirectionDegrees,WindSpeedMPH,WindSpeedGustMPH,Humidity,HourlyPrecipIn,Conditions,Clouds,dailyrainin,SolarRadiationWatts/m^2,SoftwareType,DateUTC
2013-01-25 00:12:00,63.0,60.0,-100.00,North,354,4.0,6.0,89,0.00,,,0.00,0.000000,,2013-01-25 10:12:00,
2013-01-25 00:21:00,63.0,60.0,-100.00,North,354,4.0,6.0,89,0.00,,,0.00,0.000000,,2013-01-25 10:21:00,
2013-01-25 00:31:00,63.0,60.0,-100.00,North,354,4.0,6.0,89,0.00,,,0.00,0.000000,,2013-01-25 10:31:00,
2013-01-25 00:41:00,63.0,60.0,-100.00,North,354,4.0,6.0,89,0.00,,,0.00,0.000000,,2013-01-25 10:41:00,
2013-01-25 01:11:00,64.0,60.0,-100.00,East,95,3.0,6.0,88,0.00,,,0.00,0.000000,,2013-01-25 11:11:00,
2013-01-25 01:22:00,64.0,60.0,-100.00,East,95,3.0,6.0,88,0.00,,,0.00,0.000000,,2013-01-25 11:22:00,
2013-01-25 01:32:00,64.0,60.0,-100.00,East,95,3.0,6.0,88,0.00,,,0.00,0.000000,,2013-01-25 11:32:00,
2013-01-25 01:42:00,64.0,60.0,-100.00,East,95,3.0,6.0,88,0.00,,,0.00,0.000000,,2013-01-25 11:42:00,
2013-01-25 02:11:00,63.0,60.0,-100.00,North,11,3.0,6.0,91,0.00,,,0.00,0.000000,,2013-01-25 12:11:00,
2013-01-25 02:22:00,63.0,60.0,-100.00,North,11,3.0,6.0,91,0.00,,,0.00,0.000000,,2013-01-25 12:22:00,
2013-01-25 02:32:00,63.0,60.0,-100.00,North,11,3.0,6.0,91,0.00,,,0.00,0.000000,,2013-01-25 12:32:00,
2013-01-25 02:41:00,63.0,60.0,-100.00,North,11,3.0,6.0,91,0.00,,,0.00,0.000000,,2013-01-25 12:41:00,
2013-01-25 03:11:00,63.0,62.0,-100.00,ENE,71,3.0,6.0,95,0.03,,,0.03,0.000000,,2013-01-25 13:11:00,
2013-01-25 03:22:00,63.0,62.0,-100.00,ENE,71,3.0,6.0,95,0.03,,,0.03,0.000000,,2013-01-25 13:22:00,
2013-01-25 03:32:00,63.0,62.0,-100.00,ENE,71,3.0,6.0,95,0.03,,,0.03,0.000000,,2013-01-25 13:32:00,
2013-01-25 03:42:00,63.0,62.0,-100.00,ENE,71,3.0,6.0,95,0.03,,,0.03,0.000000,,2013-01-25 13:42:00,
2013-01-25 05:12:00,62.0,61.0,-100.00,North,351,5.0,8.0,96,-99.99,,,0.07,0.000000,,2013-01-25 15:12:00,
2013-01-25 05:22:00,62.0,61.0,-100.00,North,351,5.0,8.0,96,-99.99,,,0.07,0.000000,,2013-01-25 15:22:00,
2013-01-25 05:32:00,62.0,61.0,-100.00,North,351,5.0,8.0,96,-99.99,,,0.07,0.000000,,2013-01-25 15:32:00,
2013-01-25 05:42:00,62.0,61.0,-100.00,North,351,5.0,8.0,96,-99.99,,,0.07,0.000000,,2013-01-25 15:42:00,
2013-01-25 06:12:00,62.0,61.0,-100.00,NE,44,4.0,7.0,95,0.02,,,0.09,0.000000,,2013-01-25 16:12:00,
2013-01-25 06:22:00,62.0,61.0,-100.00,NE,44,4.0,7.0,95,0.02,,,0.09,0.000000,,2013-01-25 16:22:00,
2013-01-25 06:32:00,62.0,61.0,-100.00,NE,44,4.0,7.0,95,0.02,,,0.09,0.000000,,2013-01-25 16:32:00,
2013-01-25 06:42:00,62.0,61.0,-100.00,NE,44,4.0,7.0,95,0.02,,,0.09,0.000000,,2013-01-25 16:42:00,
2013-01-25 07:12:00,62.0,61.0,-100.00,NE,39,3.0,8.0,97,0.02,,,0.11,0.000000,,2013-01-25 17:12:00,
2013-01-25 07:22:00,62.0,61.0,-100.00,NE,39,3.0,8.0,97,0.02,,,0.11,0.000000,,2013-01-25 17:22:00,
2013-01-25 07:32:00,62.0,61.0,-100.00,NE,39,3.0,8.0,97,0.02,,,0.11,0.000000,,2013-01-25 17:32:00,
2013-01-25 07:42:00,62.0,61.0,-100.00,NE,39,3.0,8.0,97,0.02,,,0.11,0.000000,,2013-01-25 17:42:00,
2013-01-25 08:02:00,63.0,62.0,-100.00,North,8,6.0,9.0,98,0.01,,,0.12,40.000000,,2013-01-25 18:02:00,
2013-01-25 08:11:00,63.0,62.0,-100.00,North,8,6.0,9.0,98,0.01,,,0.12,40.000000,,2013-01-25 18:11:00,
2013-01-25 08:23:00,63.0,62.0,-100.00,North,8,6.0,9.0,98,0.01,,,0.12,40.000000,,2013-01-25 18:23:00,
2013-01-25 08:32:00,63.0,62.0,-100.00,North,8,6.0,9.0,98,0.01,,,0.12,40.000000,,2013-01-25 18:32:00,
2013-01-25 08:42:00,63.0,62.0,-100.00,North,8,6.0,9.0,98,0.01,,,0.12,40.000000,,2013-01-25 18:42:00,
2013-01-25 09:02:00,64.0,62.0,-100.00,ENE,65,5.0,10.0,93,0.00,,,0.12,94.000000,,2013-01-25 19:02:00,
2013-01-25 09:12:00,64.0,62.0,-100.00,ENE,65,5.0,10.0,93,0.00,,,0.12,94.000000,,2013-01-25 19:12:00,
2013-01-25 09:22:00,64.0,62.0,-100.00,ENE,65,5.0,10.0,93,0.00,,,0.12,94.000000,,2013-01-25 19:22:00,
2013-01-25 09:32:00,64.0,62.0,-100.00,ENE,65,5.0,10.0,93,0.00,,,0.12,94.000000,,2013-01-25 19:32:00,
2013-01-25 09:42:00,64.0,62.0,-100.00,ENE,65,5.0,10.0,93,0.00,,,0.12,94.000000,,2013-01-25 19:42:00,
2013-01-25 10:12:00,64.0,62.0,-100.00,East,81,5.0,11.0,92,0.00,,,0.12,192.000000,,2013-01-25 20:12:00,
2013-01-25 10:22:00,64.0,62.0,-100.00,East,81,5.0,11.0,92,0.00,,,0.12,192.000000,,2013-01-25 20:22:00,
2013-01-25 10:32:00,64.0,62.0,-100.00,East,81,5.0,11.0,92,0.00,,,0.12,192.000000,,2013-01-25 20:32:00,
2013-01-25 10:42:00,64.0,62.0,-100.00,East,81,5.0,11.0,92,0.00,,,0.12,192.000000,,2013-01-25 20:42:00,
2013-01-25 11:11:00,65.0,62.0,-100.00,ENE,59,5.0,11.0,89,0.00,,,0.12,194.000000,,2013-01-25 21:11:00,
2013-01-25 11:22:00,65.0,62.0,-100.00,ENE,59,5.0,11.0,89,0.00,,,0.12,194.000000,,2013-01-25 21:22:00,
2013-01-25 11:32:00,65.0,62.0,-100.00,ENE,59,5.0,11.0,89,0.00,,,0.12,194.000000,,2013-01-25 21:32:00,
2013-01-25 11:42:00,65.0,62.0,-100.00,ENE,59,5.0,11.0,89,0.00,,,0.12,194.000000,,2013-01-25 21:42:00,
2013-01-25 12:11:00,66.0,60.0,-100.00,NW,326,4.0,10.0,81,0.00,,,0.12,191.000000,,2013-01-25 22:11:00,
2013-01-25 12:22:00,66.0,60.0,-100.00,NW,326,4.0,10.0,81,0.00,,,0.12,191.000000,,2013-01-25 22:22:00,
2013-01-25 12:32:00,66.0,60.0,-100.00,NW,326,4.0,10.0,81,0.00,,,0.12,191.000000,,2013-01-25 22:32:00,
2013-01-25 12:42:00,66.0,60.0,-100.00,NW,326,4.0,10.0,81,0.00,,,0.12,191.000000,,2013-01-25 22:42:00,
2013-01-25 13:11:00,67.0,60.0,-100.00,North,352,5.0,10.0,79,0.00,,,0.12,313.000000,,2013-01-25 23:11:00,
2013-01-25 13:22:00,67.0,60.0,-100.00,North,352,5.0,10.0,79,0.00,,,0.12,313.000000,,2013-01-25 23:22:00,
2013-01-25 13:32:00,67.0,60.0,-100.00,North,352,5.0,10.0,79,0.00,,,0.12,313.000000,,2013-01-25 23:32:00,
2013-01-25 13:42:00,67.0,60.0,-100.00,North,352,5.0,10.0,79,0.00,,,0.12,313.000000,,2013-01-25 23:42:00,
2013-01-25 14:11:00,70.0,61.0,-100.00,East,100,6.0,12.0,74,0.00,,,0.12,582.000000,,2013-01-26 00:11:00,
2013-01-25 14:22:00,70.0,61.0,-100.00,East,100,6.0,12.0,74,0.00,,,0.12,582.000000,,2013-01-26 00:22:00,
2013-01-25 14:32:00,70.0,61.0,-100.00,East,100,6.0,12.0,74,0.00,,,0.12,582.000000,,2013-01-26 00:32:00,
2013-01-25 14:41:00,70.0,61.0,-100.00,East,100,6.0,12.0,74,0.00,,,0.12,582.000000,,2013-01-26 00:41:00,
2013-01-25 15:01:00,70.0,59.0,-100.00,East,92,6.0,11.0,67,0.00,,,0.12,509.000000,,2013-01-26 01:01:00,
2013-01-25 15:11:00,70.0,59.0,-100.00,East,92,6.0,11.0,67,0.00,,,0.12,509.000000,,2013-01-26 01:11:00,
2013-01-25 15:22:00,70.0,59.0,-100.00,East,92,6.0,11.0,67,0.00,,,0.12,509.000000,,2013-01-26 01:22:00,
2013-01-25 15:31:00,70.0,59.0,-100.00,East,92,6.0,11.0,67,0.00,,,0.12,509.000000,,2013-01-26 01:31:00,
2013-01-25 15:41:00,70.0,59.0,-100.00,East,92,6.0,11.0,67,0.00,,,0.12,509.000000,,2013-01-26 01:41:00,
2013-01-25 16:11:00,68.0,61.0,-100.00,ESE,107,6.0,11.0,78,0.00,,,0.12,257.000000,,2013-01-26 02:11:00,
2013-01-25 16:22:00,68.0,61.0,-100.00,ESE,107,6.0,11.0,78,0.00,,,0.12,257.000000,,2013-01-26 02:22:00,
2013-01-25 16:32:00,68.0,61.0,-100.00,ESE,107,6.0,11.0,78,0.00,,,0.12,257.000000,,2013-01-26 02:32:00,
2013-01-25 16:42:00,68.0,61.0,-100.00,ESE,107,6.0,11.0,78,0.00,,,0.12,257.000000,,2013-01-26 02:42:00,
2013-01-25 17:11:00,67.0,58.0,-100.00,East,96,5.0,13.0,74,0.00,,,0.12,148.000000,,2013-01-26 03:11:00,
2013-01-25 17:21:00,67.0,58.0,-100.00,East,96,5.0,13.0,74,0.00,,,0.12,148.000000,,2013-01-26 03:21:00,
2013-01-25 17:31:00,67.0,58.0,-100.00,East,96,5.0,13.0,74,0.00,,,0.12,148.000000,,2013-01-26 03:31:00,
2013-01-25 17:42:00,67.0,58.0,-100.00,East,96,5.0,13.0,74,0.00,,,0.12,148.000000,,2013-01-26 03:42:00,
2013-01-25 18:12:00,65.0,59.0,-100.00,East,90,5.0,10.0,80,0.00,,,0.12,58.000000,,2013-01-26 04:12:00,
2013-01-25 18:21:00,65.0,59.0,-100.00,East,90,5.0,10.0,80,0.00,,,0.12,58.000000,,2013-01-26 04:21:00,
2013-01-25 18:32:00,65.0,59.0,-100.00,East,90,5.0,10.0,80,0.00,,,0.12,58.000000,,2013-01-26 04:32:00,
2013-01-25 18:42:00,65.0,59.0,-100.00,East,90,5.0,10.0,80,0.00,,,0.12,58.000000,,2013-01-26 04:42:00,
2013-01-25 19:12:00,64.0,60.0,-100.00,ENE,58,0.0,10.0,87,0.00,,,0.12,4.000000,,2013-01-26 05:12:00,
2013-01-25 19:23:00,64.0,60.0,-100.00,ENE,58,0.0,10.0,87,0.00,,,0.12,4.000000,,2013-01-26 05:23:00,
2013-01-25 19:33:00,64.0,60.0,-100.00,ENE,58,0.0,10.0,87,0.00,,,0.12,4.000000,,2013-01-26 05:33:00,
2013-01-25 19:41:00,64.0,60.0,-100.00,ENE,58,0.0,10.0,87,0.00,,,0.12,4.000000,,2013-01-26 05:41:00,
2013-01-25 20:12:00,61.0,58.0,-100.00,North,3,3.0,7.0,89,0.00,,,0.12,0.000000,,2013-01-26 06:12:00,
2013-01-25 20:21:00,61.0,58.0,-100.00,North,3,3.0,7.0,89,0.00,,,0.12,0.000000,,2013-01-26 06:21:00,
2013-01-25 20:31:00,61.0,58.0,-100.00,North,3,3.0,7.0,89,0.00,,,0.12,0.000000,,2013-01-26 06:31:00,
2013-01-25 20:41:00,61.0,58.0,-100.00,North,3,3.0,7.0,89,0.00,,,0.12,0.000000,,2013-01-26 06:41:00,
2013-01-25 21:12:00,59.0,56.0,-100.00,North,349,4.0,6.0,90,0.00,,,0.12,0.000000,,2013-01-26 07:12:00,
2013-01-25 21:21:00,59.0,56.0,-100.00,North,349,4.0,6.0,90,0.00,,,0.12,0.000000,,2013-01-26 07:21:00,
2013-01-25 21:33:00,59.0,56.0,-100.00,North,349,4.0,6.0,90,0.00,,,0.12,0.000000,,2013-01-26 07:33:00,
2013-01-25 21:41:00,59.0,56.0,-100.00,North,349,4.0,6.0,90,0.00,,,0.12,0.000000,,2013-01-26 07:41:00,
2013-01-25 22:11:00,57.0,55.0,-100.00,North,5,4.0,7.0,92,0.00,,,0.12,0.000000,,2013-01-26 08:11:00,
2013-01-25 22:21:00,57.0,55.0,-100.00,North,5,4.0,7.0,92,0.00,,,0.12,0.000000,,2013-01-26 08:21:00,
2013-01-25 22:31:00,57.0,55.0,-100.00,North,5,4.0,7.0,92,0.00,,,0.12,0.000000,,2013-01-26 08:31:00,
2013-01-25 22:41:00,57.0,55.0,-100.00,North,5,4.0,7.0,92,0.00,,,0.12,0.000000,,2013-01-26 08:41:00,
2013-01-25 23:11:00,56.0,52.0,-100.00,North,10,2.0,8.0,88,0.00,,,0.12,0.000000,,2013-01-26 09:11:00,
2013-01-25 23:22:00,56.0,52.0,-100.00,North,10,2.0,8.0,88,0.00,,,0.12,0.000000,,2013-01-26 09:22:00,
2013-01-25 23:31:00,56.0,52.0,-100.00,North,10,2.0,8.0,88,0.00,,,0.12,0.000000,,2013-01-26 09:31:00,
2013-01-25 23:42:00,56.0,52.0,-100.00,North,10,2.0,8.0,88,0.00,,,0.12,0.000000,,2013-01-26 09:42:00,